createdAt,value
2018-09-13T00:01:11.033Z,21.20
2018-09-13T00:04:44.257Z,21.10
2018-09-13T00:08:17.464Z,21.10
2018-09-13T00:11:50.689Z,21.00
2018-09-13T00:15:23.892Z,21.00
2018-09-13T00:18:57.133Z,20.90
2018-09-13T00:22:30.383Z,20.90
2018-09-13T00:26:03.624Z,20.90
2018-09-13T00:29:36.851Z,20.90
2018-09-13T00:33:10.104Z,20.90
2018-09-13T00:36:43.317Z,20.90
2018-09-13T00:40:16.588Z,20.90
2018-09-13T00:43:49.803Z,20.90
2018-09-13T00:47:23.017Z,20.80
2018-09-13T00:50:56.340Z,20.90
2018-09-13T00:54:29.541Z,20.90
2018-09-13T00:58:02.755Z,20.80
2018-09-13T01:01:35.983Z,20.80
2018-09-13T01:05:09.195Z,20.70
2018-09-13T01:08:42.463Z,20.80
2018-09-13T01:12:15.680Z,20.70
2018-09-13T01:15:48.894Z,20.70
2018-09-13T01:19:22.103Z,20.60
2018-09-13T01:22:55.327Z,20.60
2018-09-13T01:26:28.543Z,20.50
2018-09-13T01:30:01.764Z,20.30
2018-09-13T01:33:34.987Z,20.10
2018-09-13T01:37:08.191Z,20.10
2018-09-13T01:40:41.399Z,20.00
2018-09-13T01:44:14.620Z,19.90
2018-09-13T01:47:47.848Z,19.80
2018-09-13T01:51:21.064Z,19.70
2018-09-13T01:54:54.283Z,19.70
2018-09-13T01:58:27.532Z,19.60
2018-09-13T02:02:00.773Z,19.50
2018-09-13T02:05:33.975Z,19.50
2018-09-13T02:09:09.023Z,19.50
2018-09-13T02:12:42.255Z,19.40
2018-09-13T02:16:15.476Z,19.40
2018-09-13T02:19:48.687Z,19.40
2018-09-13T02:23:21.907Z,19.40
2018-09-13T02:26:55.134Z,19.40
2018-09-13T02:30:28.352Z,19.40
2018-09-13T02:34:01.568Z,19.40
2018-09-13T02:37:34.799Z,19.40
2018-09-13T02:41:08.021Z,19.30
2018-09-13T02:44:41.243Z,19.30
2018-09-13T02:48:14.457Z,19.30
2018-09-13T02:51:47.673Z,19.20
2018-09-13T02:55:20.905Z,19.20
2018-09-13T02:58:54.132Z,19.20
2018-09-13T03:02:27.355Z,19.20
2018-09-13T03:06:00.563Z,19.20
2018-09-13T03:09:33.795Z,19.10
2018-09-13T03:13:07.060Z,19.10
2018-09-13T03:16:40.315Z,19.10
2018-09-13T03:20:13.536Z,19.00
2018-09-13T03:23:46.775Z,19.00
2018-09-13T03:27:19.996Z,19.10
2018-09-13T03:30:53.262Z,19.10
2018-09-13T03:34:26.509Z,19.20
2018-09-13T03:37:59.727Z,19.20
2018-09-13T03:41:32.927Z,19.20
2018-09-13T03:45:06.143Z,19.20
2018-09-13T03:48:39.565Z,19.10
2018-09-13T03:52:12.784Z,19.10
2018-09-13T03:55:45.996Z,19.10
2018-09-13T03:59:19.227Z,19.00
2018-09-13T04:02:52.446Z,19.00
2018-09-13T04:06:25.675Z,19.00
2018-09-13T04:09:58.888Z,18.90
2018-09-13T04:13:32.109Z,18.90
2018-09-13T04:17:05.376Z,18.90
2018-09-13T04:20:38.579Z,18.90
2018-09-13T04:24:11.798Z,18.80
2018-09-13T04:27:45.015Z,18.80
2018-09-13T04:31:18.328Z,18.80
2018-09-13T04:34:51.531Z,18.80
2018-09-13T04:38:24.854Z,18.80
2018-09-13T04:41:59.151Z,18.80
2018-09-13T04:45:32.439Z,18.80
2018-09-13T04:49:06.127Z,18.80
2018-09-13T04:52:39.391Z,18.80
2018-09-13T04:56:12.651Z,18.70
2018-09-13T04:59:45.872Z,18.70
2018-09-13T05:03:19.933Z,18.60
2018-09-13T05:06:53.850Z,18.60
2018-09-13T05:10:27.101Z,18.50
2018-09-13T05:14:00.326Z,18.50
2018-09-13T05:17:33.583Z,18.40
2018-09-13T05:21:06.907Z,18.40
2018-09-13T05:24:40.122Z,18.50
2018-09-13T05:28:13.370Z,18.60
2018-09-13T05:31:46.646Z,18.50
2018-09-13T05:35:19.847Z,18.40
2018-09-13T05:38:53.167Z,18.30
2018-09-13T05:42:26.352Z,18.30
2018-09-13T05:45:59.560Z,18.30
2018-09-13T05:49:32.852Z,18.20
2018-09-13T05:53:06.088Z,18.30
2018-09-13T05:56:39.296Z,18.40
2018-09-13T06:00:12.551Z,18.50
2018-09-13T06:03:45.805Z,18.70
2018-09-13T06:07:19.029Z,18.80
2018-09-13T06:10:52.248Z,18.90
2018-09-13T06:14:25.476Z,19.10
2018-09-13T06:17:58.702Z,19.30
2018-09-13T06:21:31.928Z,19.50
2018-09-13T06:25:05.169Z,19.70
2018-09-13T06:28:38.401Z,19.90
2018-09-13T06:32:11.622Z,20.00
2018-09-13T06:35:44.851Z,20.10
2018-09-13T06:39:18.083Z,20.20
2018-09-13T06:42:51.288Z,20.30
2018-09-13T06:46:24.520Z,20.30
2018-09-13T06:49:57.801Z,20.40
2018-09-13T06:53:31.019Z,20.40
2018-09-13T06:57:04.255Z,20.60
2018-09-13T07:00:37.499Z,20.70
2018-09-13T07:04:10.737Z,20.90
2018-09-13T07:07:43.968Z,21.10
2018-09-13T07:11:17.206Z,21.30
2018-09-13T07:14:50.454Z,21.40
2018-09-13T07:18:23.671Z,21.50
2018-09-13T07:21:56.900Z,21.50
2018-09-13T07:25:30.120Z,21.40
2018-09-13T07:29:03.349Z,21.40
2018-09-13T07:32:36.593Z,21.40
2018-09-13T07:36:09.828Z,21.40
2018-09-13T07:39:43.060Z,21.40
2018-09-13T07:43:16.293Z,21.30
2018-09-13T07:46:49.521Z,21.20
2018-09-13T07:50:22.764Z,21.20
2018-09-13T07:53:56.002Z,21.10
2018-09-13T07:57:29.229Z,21.00
2018-09-13T08:01:02.476Z,21.00
2018-09-13T08:04:35.716Z,21.00
2018-09-13T08:08:08.948Z,21.00
2018-09-13T08:11:42.624Z,21.10
2018-09-13T08:15:15.796Z,21.20
2018-09-13T08:18:49.051Z,21.20
2018-09-13T08:22:22.274Z,21.20
2018-09-13T08:25:55.505Z,21.10
2018-09-13T08:29:28.735Z,21.00
2018-09-13T08:33:02.359Z,21.00
2018-09-13T08:36:35.592Z,21.00
2018-09-13T08:40:08.825Z,21.00
2018-09-13T08:43:42.251Z,21.00
2018-09-13T08:47:15.480Z,20.90
2018-09-13T08:50:48.788Z,20.90
2018-09-13T08:54:22.008Z,20.90
2018-09-13T08:57:55.267Z,20.90
2018-09-13T09:01:28.489Z,21.00
2018-09-13T09:05:01.691Z,21.10
2018-09-13T09:08:34.927Z,21.30
2018-09-13T09:12:08.139Z,21.50
2018-09-13T09:15:41.372Z,21.70
2018-09-13T09:19:14.592Z,21.80
2018-09-13T09:22:47.834Z,21.80
2018-09-13T09:26:21.044Z,21.80
2018-09-13T09:29:54.320Z,21.90
2018-09-13T09:33:27.533Z,21.80
2018-09-13T09:37:00.756Z,21.80
2018-09-13T09:40:33.998Z,21.80
2018-09-13T09:44:07.529Z,21.90
2018-09-13T09:47:40.740Z,21.90
2018-09-13T09:51:13.953Z,22.00
2018-09-13T09:54:47.216Z,22.10
2018-09-13T09:58:20.428Z,22.20
2018-09-13T10:01:59.116Z,22.20
2018-09-13T10:05:32.325Z,22.20
2018-09-13T10:09:07.487Z,22.10
2018-09-13T10:12:40.643Z,22.10
2018-09-13T10:16:19.257Z,22.20
2018-09-13T10:19:57.884Z,22.40
2018-09-13T10:23:36.337Z,22.60
2018-09-13T10:27:14.786Z,22.70
2018-09-13T10:30:53.348Z,22.80
2018-09-13T10:34:31.954Z,23.00
2018-09-13T10:38:10.766Z,23.10
2018-09-13T10:41:49.477Z,23.10
2018-09-13T10:45:31.956Z,23.00
2018-09-13T10:49:10.612Z,22.90
2018-09-13T10:52:47.563Z,22.90
2018-09-13T10:56:20.783Z,22.90
2018-09-13T10:59:54.011Z,23.00
2018-09-13T11:03:27.262Z,23.10
2018-09-13T11:07:00.476Z,23.20
2018-09-13T11:10:33.756Z,23.20
2018-09-13T11:14:13.717Z,23.20
2018-09-13T11:17:46.951Z,23.10
2018-09-13T11:21:20.182Z,23.00
2018-09-13T11:24:53.429Z,22.90
2018-09-13T11:28:26.648Z,22.90
2018-09-13T11:31:59.932Z,23.00
2018-09-13T11:35:33.266Z,23.10
2018-09-13T11:39:08.660Z,23.20
2018-09-13T11:42:42.585Z,23.40
2018-09-13T11:46:16.067Z,23.60
2018-09-13T11:49:49.300Z,23.60
2018-09-13T11:53:22.615Z,23.70
2018-09-13T11:56:55.845Z,23.70
2018-09-13T12:00:29.086Z,23.70
2018-09-13T12:04:02.316Z,23.80
2018-09-13T12:07:35.556Z,23.80
2018-09-13T12:11:08.772Z,23.80
2018-09-13T12:14:42.012Z,23.80
2018-09-13T12:18:15.388Z,23.80
2018-09-13T12:21:48.567Z,23.70
2018-09-13T12:25:21.811Z,23.80
2018-09-13T12:28:55.151Z,24.00
2018-09-13T12:32:28.396Z,24.40
2018-09-13T12:36:01.622Z,24.80
2018-09-13T12:39:34.858Z,25.00
2018-09-13T12:43:08.129Z,25.00
2018-09-13T12:46:41.375Z,24.90
2018-09-13T12:50:15.223Z,24.80
2018-09-13T12:53:48.415Z,24.90
2018-09-13T12:57:21.823Z,25.00
2018-09-13T13:00:54.925Z,24.90
2018-09-13T13:04:28.160Z,24.90
2018-09-13T13:08:01.416Z,25.00
2018-09-13T13:11:34.655Z,25.10
2018-09-13T13:15:07.890Z,25.10
2018-09-13T13:18:41.155Z,25.10
2018-09-13T13:22:14.391Z,25.10
2018-09-13T13:25:47.617Z,25.20
2018-09-13T13:29:20.848Z,25.20
2018-09-13T13:32:54.133Z,25.20
2018-09-13T13:36:27.415Z,25.10
2018-09-13T13:40:01.415Z,25.10
2018-09-13T13:43:34.668Z,25.10
2018-09-13T13:47:08.116Z,25.00
2018-09-13T13:50:41.339Z,24.90
2018-09-13T13:54:14.572Z,25.00
2018-09-13T13:57:47.832Z,25.10
2018-09-13T14:01:21.071Z,25.20
2018-09-13T14:04:54.324Z,25.30
2018-09-13T14:08:27.556Z,25.30
2018-09-13T14:12:00.783Z,25.40
2018-09-13T14:15:34.064Z,25.50
2018-09-13T14:19:07.323Z,25.60
2018-09-13T14:22:40.556Z,25.60
2018-09-13T14:26:13.810Z,25.60
2018-09-13T14:29:47.085Z,25.60
2018-09-13T14:33:20.299Z,25.70
2018-09-13T14:36:53.541Z,25.70
2018-09-13T14:40:26.798Z,25.80
2018-09-13T14:44:00.037Z,25.80
2018-09-13T14:47:33.339Z,25.80
2018-09-13T14:51:06.881Z,25.90
2018-09-13T14:54:40.104Z,25.90
2018-09-13T14:58:13.371Z,26.00
2018-09-13T15:01:47.267Z,26.10
2018-09-13T15:05:20.515Z,26.10
2018-09-13T15:08:53.745Z,26.00
2018-09-13T15:12:26.996Z,25.90
2018-09-13T15:16:00.219Z,25.80
2018-09-13T15:19:33.540Z,25.70
2018-09-13T15:23:06.784Z,25.60
2018-09-13T15:26:40.022Z,25.60
2018-09-13T15:30:13.317Z,25.70
2018-09-13T15:33:46.534Z,25.80
2018-09-13T15:37:19.801Z,25.80
2018-09-13T15:40:53.019Z,25.80
2018-09-13T15:44:26.282Z,25.80
2018-09-13T15:47:59.922Z,25.70
2018-09-13T15:51:33.268Z,25.60
2018-09-13T15:55:06.505Z,25.50
2018-09-13T15:58:39.928Z,25.40
2018-09-13T16:02:13.207Z,25.30
2018-09-13T16:05:46.427Z,25.20
2018-09-13T16:09:19.672Z,25.10
2018-09-13T16:12:53.007Z,25.10
2018-09-13T16:16:26.165Z,25.00
2018-09-13T16:19:59.437Z,24.90
2018-09-13T16:23:32.668Z,24.80
2018-09-13T16:27:05.905Z,24.70
2018-09-13T16:30:39.259Z,24.60
2018-09-13T16:34:12.497Z,24.60
2018-09-13T16:37:51.216Z,24.50
2018-09-13T16:41:31.415Z,24.40
2018-09-13T16:45:04.660Z,24.30
2018-09-13T16:48:41.761Z,24.20
2018-09-13T16:52:14.987Z,24.20
2018-09-13T16:55:48.272Z,24.10
2018-09-13T16:59:21.533Z,24.10
2018-09-13T17:02:55.221Z,24.00
2018-09-13T17:06:28.434Z,23.90
2018-09-13T17:10:01.716Z,23.80
2018-09-13T17:13:35.130Z,23.80
2018-09-13T17:17:08.364Z,23.70
2018-09-13T17:20:41.586Z,23.70
2018-09-13T17:24:14.812Z,23.70
2018-09-13T17:27:48.019Z,23.60
2018-09-13T17:31:21.243Z,23.60
2018-09-13T17:34:54.484Z,23.60
2018-09-13T17:38:27.695Z,23.60
2018-09-13T17:42:00.901Z,23.60
2018-09-13T17:45:34.879Z,23.60
2018-09-13T17:49:08.116Z,23.50
2018-09-13T17:52:41.348Z,23.50
2018-09-13T17:56:14.592Z,23.50
2018-09-13T17:59:47.838Z,23.40
2018-09-13T18:03:21.112Z,23.40
2018-09-13T18:06:54.339Z,23.40
2018-09-13T18:10:27.584Z,23.30
2018-09-13T18:14:00.815Z,23.30
2018-09-13T18:17:34.041Z,23.30
2018-09-13T18:21:07.260Z,23.20
2018-09-13T18:24:40.501Z,23.10
2018-09-13T18:28:13.730Z,23.10
2018-09-13T18:31:46.959Z,23.00
2018-09-13T18:35:20.235Z,23.00
2018-09-13T18:38:53.434Z,22.90
2018-09-13T18:42:26.677Z,22.80
2018-09-13T18:46:00.573Z,22.80
2018-09-13T18:49:33.804Z,22.70
2018-09-13T18:53:07.140Z,22.60
2018-09-13T18:56:40.360Z,22.50
2018-09-13T19:00:13.704Z,22.40
2018-09-13T19:03:46.927Z,22.40
2018-09-13T19:07:20.156Z,22.40
2018-09-13T19:10:53.435Z,22.30
2018-09-13T19:14:26.617Z,22.30
2018-09-13T19:17:59.847Z,22.40
2018-09-13T19:21:33.059Z,22.40
2018-09-13T19:25:06.276Z,22.30
2018-09-13T19:28:39.516Z,22.30
2018-09-13T19:32:13.020Z,22.30
2018-09-13T19:35:46.244Z,22.20
2018-09-13T19:39:19.483Z,22.10
2018-09-13T19:42:52.715Z,22.10
2018-09-13T19:46:25.921Z,21.90
2018-09-13T19:49:59.165Z,21.80
2018-09-13T19:53:32.418Z,21.60
2018-09-13T19:57:06.092Z,21.50
2018-09-13T20:00:39.328Z,21.40
2018-09-13T20:04:12.789Z,21.30
2018-09-13T20:07:46.008Z,21.30
2018-09-13T20:11:19.236Z,21.30
2018-09-13T20:14:52.647Z,21.30
2018-09-13T20:18:26.003Z,21.20
2018-09-13T20:21:59.133Z,21.10
2018-09-13T20:25:32.368Z,21.10
2018-09-13T20:29:06.435Z,21.00
2018-09-13T20:32:39.642Z,20.90
2018-09-13T20:36:12.893Z,20.80
2018-09-13T20:39:46.109Z,20.70
2018-09-13T20:43:19.331Z,20.60
2018-09-13T20:46:52.563Z,20.50
2018-09-13T20:50:25.798Z,20.40
2018-09-13T20:53:59.032Z,20.30
2018-09-13T20:57:32.246Z,20.20
2018-09-13T21:01:05.723Z,20.20
2018-09-13T21:04:38.957Z,20.20
2018-09-13T21:08:12.235Z,20.20
2018-09-13T21:11:45.460Z,20.20
2018-09-13T21:15:18.684Z,20.20
2018-09-13T21:18:51.901Z,20.20
2018-09-13T21:22:25.120Z,20.10
2018-09-13T21:25:58.325Z,20.10
2018-09-13T21:29:31.544Z,20.00
2018-09-13T21:33:04.800Z,19.90
2018-09-13T21:36:38.004Z,19.90
2018-09-13T21:40:11.233Z,19.90
2018-09-13T21:43:44.459Z,19.90
2018-09-13T21:47:17.695Z,19.80
2018-09-13T21:50:50.921Z,19.80
2018-09-13T21:54:24.149Z,19.70
2018-09-13T21:57:57.379Z,19.70
2018-09-13T22:01:30.623Z,19.70
2018-09-13T22:05:03.859Z,19.70
2018-09-13T22:08:37.056Z,19.70
2018-09-13T22:12:12.304Z,19.70
2018-09-13T22:15:45.520Z,19.70
2018-09-13T22:19:18.756Z,19.60
2018-09-13T22:22:51.977Z,19.60
2018-09-13T22:26:25.201Z,19.60
2018-09-13T22:29:58.439Z,19.50
2018-09-13T22:33:31.660Z,19.50
2018-09-13T22:37:04.870Z,19.60
2018-09-13T22:40:38.096Z,19.60
2018-09-13T22:44:11.292Z,19.60
2018-09-13T22:47:44.504Z,19.60
2018-09-13T22:51:18.004Z,19.60
2018-09-13T22:54:51.508Z,19.60
2018-09-13T22:58:24.721Z,19.60
2018-09-13T23:01:57.936Z,19.60
2018-09-13T23:05:31.208Z,19.60
2018-09-13T23:09:07.803Z,19.70
2018-09-13T23:12:41.047Z,19.70
2018-09-13T23:16:14.268Z,19.70
2018-09-13T23:19:47.473Z,19.70
2018-09-13T23:23:20.700Z,19.70
2018-09-13T23:26:53.913Z,19.70
2018-09-13T23:30:27.131Z,19.70
2018-09-13T23:34:00.337Z,19.60
2018-09-13T23:37:33.577Z,19.60
2018-09-13T23:41:06.803Z,19.50
2018-09-13T23:44:40.017Z,19.50
2018-09-13T23:48:13.232Z,19.40
2018-09-13T23:51:46.448Z,19.30
2018-09-13T23:55:19.691Z,19.30
2018-09-13T23:58:52.925Z,19.20
